Time;durP1;ratioP1;P1;durP2;ratioP2;P2;SDS_P1;SDS_P2;PMS_P1;PMS_P2;Temp;Humidity;BMP_temperature;BMP_pressure;BME280_temperature;BME280_humidity;BME280_pressure;Samples;Min_cycle;Max_cycle;Signal;HPM_P1;HPM_P2
2023/07/20 00:00:53;;;;;;;;;;;15.20;1.00;;;;;;5035737;28;19932;-82
2023/07/20 00:03:22;;;;;;;;;;;15.20;1.00;;;;;;5019700;28;20004;-82
2023/07/20 00:05:49;;;;;;;;;;;15.20;1.00;;;;;;5035609;28;19929;-82
2023/07/20 00:08:15;;;;;;;;;;;15.20;1.00;;;;;;5034419;28;20384;-83
2023/07/20 00:10:41;;;;;;;;;;;15.10;99.90;;;;;;5035553;28;19929;-83
2023/07/20 00:13:06;;;;;;;;;;;15.10;99.90;;;;;;5034391;28;19935;-83
2023/07/20 00:15:32;;;;;;;;;;;15.10;99.90;;;;;;5034638;28;19932;-83
2023/07/20 00:17:58;;;;;;;;;;;15.10;99.90;;;;;;5034426;28;19987;-84
2023/07/20 00:20:24;;;;;;;;;;;15.10;1.00;;;;;;5037182;28;20016;-83
2023/07/20 00:22:51;;;;;;;;;;;15.10;1.00;;;;;;5034379;28;19924;-82
2023/07/20 00:25:17;;;;;;;;;;;15.00;1.00;;;;;;5052634;28;20328;-83
2023/07/20 00:27:42;;;;;;;;;;;15.10;1.00;;;;;;5034639;28;20019;-82
2023/07/20 00:30:08;;;;;;;;;;;15.00;1.00;;;;;;5035594;28;19960;-83
2023/07/20 00:32:34;;;;;;;;;;;15.00;1.00;;;;;;5031991;28;19932;-82
2023/07/20 00:35:00;;;;;;;;;;;15.00;1.00;;;;;;5034104;28;20367;-83
2023/07/20 00:37:25;;;;;;;;;;;15.00;1.00;;;;;;5011472;28;19924;-83
2023/07/20 00:39:51;;;;;;;;;;;15.00;1.00;;;;;;4998840;28;19936;-83
2023/07/20 00:42:17;;;;;;;;;;;14.90;1.00;;;;;;5032857;28;20674;-82
2023/07/20 00:44:42;;;;;;;;;;;14.90;1.00;;;;;;5015463;28;19937;-83
2023/07/20 00:47:08;;;;;;;;;;;14.90;1.00;;;;;;5033486;28;19928;-82
2023/07/20 00:49:34;;;;;;;;;;;14.90;1.00;;;;;;5038532;28;19936;-82
2023/07/20 00:52:01;;;;;;;;;;;14.90;1.00;;;;;;5038564;28;20384;-83
2023/07/20 00:54:27;;;;;;;;;;;14.80;1.00;;;;;;5037946;28;19938;-83
2023/07/20 00:56:53;;;;;;;;;;;14.90;1.00;;;;;;5037156;28;19936;-83
2023/07/20 00:59:19;;;;;;;;;;;14.80;1.00;;;;;;5037291;28;19924;-83
2023/07/20 01:01:44;;;;;;;;;;;14.90;1.00;;;;;;5037293;28;19929;-83
2023/07/20 01:04:10;;;;;;;;;;;14.90;1.00;;;;;;5039963;28;19983;-83
2023/07/20 01:06:39;;;;;;;;;;;14.90;1.00;;;;;;5023119;28;19932;-82
2023/07/20 01:09:18;;;;;;;;;;;14.90;1.00;;;;;;5037192;28;19936;-82
2023/07/20 01:12:07;;;;;;;;;;;14.90;1.00;;;;;;5036402;28;19929;-82
2023/07/20 01:14:34;;;;;;;;;;;14.90;1.00;;;;;;5013509;28;19932;-82
2023/07/20 01:16:59;;;;;;;;;;;14.90;1.00;;;;;;5040118;28;20410;-82
2023/07/20 01:19:25;;;;;;;;;;;14.90;1.00;;;;;;5021772;28;19929;-83
2023/07/20 01:21:55;;;;;;;;;;;14.90;1.00;;;;;;5037097;28;19955;-82
2023/07/20 01:24:24;;;;;;;;;;;14.90;1.00;;;;;;5037130;28;19973;-83
2023/07/20 01:27:08;;;;;;;;;;;14.90;1.00;;;;;;5038736;28;19971;-84
2023/07/20 01:29:52;;;;;;;;;;;14.90;1.00;;;;;;5039321;28;19932;-82
2023/07/20 01:32:19;;;;;;;;;;;14.90;1.00;;;;;;5036647;28;19929;-83
2023/07/20 01:34:46;;;;;;;;;;;14.90;1.00;;;;;;5035474;28;20031;-82
2023/07/20 01:37:12;;;;;;;;;;;14.90;1.00;;;;;;5025005;28;19935;-83
2023/07/20 01:39:38;;;;;;;;;;;14.90;1.00;;;;;;5042578;28;19933;-83
2023/07/20 01:42:04;;;;;;;;;;;14.90;1.00;;;;;;5036237;28;21311;-84
2023/07/20 01:44:30;;;;;;;;;;;14.90;99.90;;;;;;5002759;28;20466;-82
2023/07/20 01:46:56;;;;;;;;;;;14.90;1.00;;;;;;5019035;28;19927;-82
2023/07/20 01:49:21;;;;;;;;;;;14.90;1.00;;;;;;5039656;28;20015;-83
2023/07/20 01:51:47;;;;;;;;;;;14.90;1.00;;;;;;5037749;28;19951;-82
2023/07/20 01:54:12;;;;;;;;;;;14.90;1.00;;;;;;5035924;28;20032;-82
2023/07/20 01:56:38;;;;;;;;;;;14.90;1.00;;;;;;5038510;28;20060;-83
2023/07/20 01:59:04;;;;;;;;;;;14.90;1.00;;;;;;5039454;28;19952;-83
2023/07/20 02:01:29;;;;;;;;;;;14.90;1.00;;;;;;5033870;28;20047;-82
2023/07/20 02:03:55;;;;;;;;;;;14.90;1.00;;;;;;5037087;28;20354;-83
2023/07/20 02:06:21;;;;;;;;;;;14.90;1.00;;;;;;5039128;28;19937;-83
2023/07/20 02:08:46;;;;;;;;;;;14.90;1.00;;;;;;5019793;28;19929;-83
2023/07/20 02:11:12;;;;;;;;;;;14.90;1.00;;;;;;5038907;28;19932;-83
2023/07/20 02:13:38;;;;;;;;;;;14.90;1.00;;;;;;5016474;28;20029;-83
2023/07/20 02:16:04;;;;;;;;;;;14.90;1.00;;;;;;5021617;28;19938;-83
2023/07/20 02:18:30;;;;;;;;;;;14.90;1.00;;;;;;5033974;28;19929;-84
2023/07/20 02:20:55;;;;;;;;;;;14.80;1.00;;;;;;5037176;28;19929;-83
2023/07/20 02:23:21;;;;;;;;;;;13.70;1.00;;;;;;5033670;28;19925;-83
2023/07/20 02:25:47;;;;;;;;;;;14.80;1.00;;;;;;5019183;28;19933;-84
2023/07/20 02:28:15;;;;;;;;;;;14.80;1.00;;;;;;5035372;28;19932;-83
2023/07/20 02:30:41;;;;;;;;;;;14.80;1.00;;;;;;5004648;28;19931;-82
2023/07/20 02:33:07;;;;;;;;;;;14.80;1.00;;;;;;5034053;28;19928;-83
2023/07/20 02:35:33;;;;;;;;;;;14.80;1.00;;;;;;5033136;28;20014;-82
2023/07/20 02:37:58;;;;;;;;;;;14.80;1.00;;;;;;5017754;28;19940;-83
2023/07/20 02:40:24;;;;;;;;;;;14.80;1.00;;;;;;5017791;28;19939;-83
2023/07/20 02:42:49;;;;;;;;;;;14.80;1.00;;;;;;5032723;28;19936;-83
2023/07/20 02:45:16;;;;;;;;;;;14.80;1.00;;;;;;5037244;28;19944;-82
2023/07/20 02:47:42;;;;;;;;;;;14.80;1.00;;;;;;5035335;28;19933;-83
2023/07/20 02:50:08;;;;;;;;;;;14.80;1.00;;;;;;5026105;28;20118;-84
2023/07/20 02:52:33;;;;;;;;;;;14.80;1.00;;;;;;5026540;28;19936;-84
2023/07/20 02:54:59;;;;;;;;;;;14.80;1.00;;;;;;5040123;28;20047;-84
2023/07/20 02:57:25;;;;;;;;;;;14.70;1.00;;;;;;5043520;28;19932;-83
2023/07/20 02:59:51;;;;;;;;;;;14.70;1.00;;;;;;5026410;28;20378;-83
2023/07/20 03:02:16;;;;;;;;;;;14.70;1.00;;;;;;5042469;28;19960;-84
2023/07/20 03:04:42;;;;;;;;;;;14.70;1.00;;;;;;5041977;28;20331;-83
2023/07/20 03:07:09;;;;;;;;;;;14.70;1.00;;;;;;5019587;28;20974;-84
2023/07/20 03:09:35;;;;;;;;;;;14.70;1.00;;;;;;5039318;28;20426;-83
2023/07/20 03:12:01;;;;;;;;;;;14.70;1.00;;;;;;5040724;28;19939;-84
2023/07/20 03:14:26;;;;;;;;;;;14.70;1.00;;;;;;5026728;28;19932;-82
2023/07/20 03:16:52;;;;;;;;;;;14.70;1.00;;;;;;5039495;28;19933;-83
2023/07/20 03:19:18;;;;;;;;;;;14.70;1.00;;;;;;5033905;28;19980;-83
2023/07/20 03:21:43;;;;;;;;;;;14.70;1.00;;;;;;5035408;28;19928;-84
2023/07/20 03:24:09;;;;;;;;;;;14.70;1.00;;;;;;5019964;28;19929;-83
2023/07/20 03:26:35;;;;;;;;;;;14.70;1.00;;;;;;5034834;28;19936;-84
2023/07/20 03:29:01;;;;;;;;;;;14.60;1.00;;;;;;5051503;28;20423;-83
2023/07/20 03:31:27;;;;;;;;;;;14.70;1.00;;;;;;5034378;28;19968;-83
2023/07/20 03:33:53;;;;;;;;;;;14.70;1.00;;;;;;5036214;28;19924;-84
2023/07/20 03:36:18;;;;;;;;;;;14.70;1.00;;;;;;5035837;28;19962;-81
2023/07/20 03:38:44;;;;;;;;;;;14.70;1.00;;;;;;5034910;28;19929;-83
2023/07/20 03:41:11;;;;;;;;;;;14.70;1.00;;;;;;5036075;28;19940;-82
2023/07/20 03:43:37;;;;;;;;;;;14.70;1.00;;;;;;5039216;28;19933;-83
2023/07/20 03:46:06;;;;;;;;;;;14.70;1.00;;;;;;5034927;28;20454;-82
2023/07/20 03:48:32;;;;;;;;;;;14.80;1.00;;;;;;5040882;28;19928;-83
2023/07/20 03:51:02;;;;;;;;;;;14.80;1.00;;;;;;5039221;28;19944;-83
2023/07/20 03:53:27;;;;;;;;;;;14.80;1.00;;;;;;5024728;28;19975;-83
2023/07/20 03:55:54;;;;;;;;;;;14.80;1.00;;;;;;5035907;28;20668;-83
2023/07/20 03:58:19;;;;;;;;;;;14.80;1.00;;;;;;5015802;28;20337;-81
2023/07/20 04:00:46;;;;;;;;;;;14.80;1.00;;;;;;5035195;28;20428;-82
2023/07/20 04:03:12;;;;;;;;;;;14.80;1.00;;;;;;5034041;28;19940;-83
2023/07/20 04:05:37;;;;;;;;;;;14.80;1.00;;;;;;5037895;28;19929;-84
2023/07/20 04:08:03;;;;;;;;;;;14.90;1.00;;;;;;5028674;28;19958;-83
2023/07/20 04:10:29;;;;;;;;;;;14.90;1.00;;;;;;5032100;28;20179;-83
2023/07/20 04:12:55;;;;;;;;;;;14.90;1.00;;;;;;5031146;28;19940;-82
2023/07/20 04:15:20;;;;;;;;;;;14.90;1.00;;;;;;5031644;28;19936;-80
2023/07/20 04:17:46;;;;;;;;;;;15.00;1.00;;;;;;5032047;28;19929;-80
2023/07/20 04:20:12;;;;;;;;;;;14.90;1.00;;;;;;5034566;28;21075;-79
2023/07/20 04:22:38;;;;;;;;;;;15.00;1.00;;;;;;5015264;28;19978;-79
2023/07/20 04:25:04;;;;;;;;;;;13.50;1.00;;;;;;4997876;28;19932;-84
2023/07/20 04:27:30;;;;;;;;;;;15.00;1.00;;;;;;5031167;28;19940;-83
2023/07/20 04:29:56;;;;;;;;;;;15.10;1.00;;;;;;5015092;28;19975;-82
2023/07/20 04:32:21;;;;;;;;;;;15.10;1.00;;;;;;4999219;28;20445;-82
2023/07/20 04:34:47;;;;;;;;;;;15.20;1.00;;;;;;5032724;28;19976;-82
2023/07/20 04:37:13;;;;;;;;;;;15.30;1.00;;;;;;5015570;28;20773;-81
2023/07/20 04:39:38;;;;;;;;;;;15.30;1.00;;;;;;5031806;28;19936;-82
2023/07/20 04:42:04;;;;;;;;;;;15.40;1.00;;;;;;5016133;28;20458;-82
2023/07/20 04:44:30;;;;;;;;;;;15.50;1.00;;;;;;5014662;28;20002;-83
2023/07/20 04:46:55;;;;;;;;;;;15.60;1.00;;;;;;5016532;28;19937;-83
2023/07/20 04:49:21;;;;;;;;;;;15.70;1.00;;;;;;5031918;28;19929;-85
2023/07/20 04:51:47;;;;;;;;;;;15.80;1.00;;;;;;5015025;28;20700;-84
2023/07/20 04:54:13;;;;;;;;;;;15.90;99.90;;;;;;5019972;28;19960;-83
2023/07/20 04:56:39;;;;;;;;;;;16.00;99.90;;;;;;5035013;28;19928;-84
2023/07/20 04:59:04;;;;;;;;;;;16.00;99.90;;;;;;5033891;28;19971;-85
2023/07/20 05:01:30;;;;;;;;;;;16.10;99.90;;;;;;5022105;28;19942;-84
2023/07/20 05:03:56;;;;;;;;;;;16.10;99.90;;;;;;5036881;28;20019;-84
2023/07/20 05:06:22;;;;;;;;;;;16.20;99.90;;;;;;5034787;28;20281;-85
2023/07/20 05:08:47;;;;;;;;;;;16.20;99.90;;;;;;5034901;28;20041;-85
2023/07/20 05:11:13;;;;;;;;;;;16.20;99.90;;;;;;5036915;28;19929;-84
2023/07/20 05:13:39;;;;;;;;;;;16.20;99.90;;;;;;5035742;28;21829;-86
2023/07/20 05:16:04;;;;;;;;;;;16.30;99.90;;;;;;5007194;28;20068;-84
2023/07/20 05:18:30;;;;;;;;;;;16.30;99.90;;;;;;5005734;28;20085;-85
2023/07/20 05:20:59;;;;;;;;;;;16.30;99.90;;;;;;5035582;28;19974;-85
2023/07/20 05:23:25;;;;;;;;;;;16.30;99.90;;;;;;5022783;28;19933;-85
2023/07/20 05:25:54;;;;;;;;;;;16.20;99.90;;;;;;5020055;28;20020;-83
2023/07/20 05:28:20;;;;;;;;;;;16.20;99.90;;;;;;5038064;28;21862;-83
2023/07/20 05:30:46;;;;;;;;;;;16.20;99.90;;;;;;5018991;28;20093;-85
2023/07/20 05:33:11;;;;;;;;;;;16.10;99.90;;;;;;5016780;28;19933;-80
2023/07/20 05:35:37;;;;;;;;;;;16.10;99.90;;;;;;5020409;28;19982;-79
2023/07/20 05:38:04;;;;;;;;;;;16.00;99.90;;;;;;5014641;28;20023;-80
2023/07/20 05:40:30;;;;;;;;;;;16.00;99.90;;;;;;5034841;28;19978;-79
2023/07/20 05:42:56;;;;;;;;;;;16.00;99.90;;;;;;5033081;28;20008;-81
2023/07/20 05:45:22;;;;;;;;;;;16.00;99.90;;;;;;5019468;28;19929;-80
2023/07/20 05:47:48;;;;;;;;;;;16.10;99.90;;;;;;5035519;28;19990;-80
2023/07/20 05:50:13;;;;;;;;;;;16.10;99.90;;;;;;5033617;28;19939;-74
2023/07/20 05:52:40;;;;;;;;;;;16.20;99.90;;;;;;5019137;28;19969;-76
2023/07/20 05:55:06;;;;;;;;;;;16.20;44.70;;;;;;5016953;28;19924;-76
2023/07/20 05:57:32;;;;;;;;;;;16.20;1.00;;;;;;5034003;28;19999;-78
2023/07/20 05:59:58;;;;;;;;;;;16.30;1.00;;;;;;5033602;28;20023;-77
2023/07/20 06:02:23;;;;;;;;;;;16.40;1.00;;;;;;5034753;28;20253;-77
2023/07/20 06:04:49;;;;;;;;;;;16.50;99.90;;;;;;5031442;28;20304;-77
2023/07/20 06:07:15;;;;;;;;;;;16.50;99.90;;;;;;5035484;28;19990;-76
2023/07/20 06:09:41;;;;;;;;;;;16.60;99.90;;;;;;5012472;28;19933;-77
2023/07/20 06:12:07;;;;;;;;;;;16.70;99.90;;;;;;5034238;28;19940;-82
2023/07/20 06:14:32;;;;;;;;;;;17.10;99.90;;;;;;5035854;28;20023;-80
2023/07/20 06:16:58;;;;;;;;;;;16.80;1.00;;;;;;5037532;28;19929;-81
2023/07/20 06:19:23;;;;;;;;;;;16.90;99.90;;;;;;5036847;28;19932;-80
2023/07/20 06:21:49;;;;;;;;;;;17.00;1.00;;;;;;5035872;28;19936;-80
2023/07/20 06:24:18;;;;;;;;;;;17.00;1.00;;;;;;5019932;28;20306;-80
2023/07/20 06:26:44;;;;;;;;;;;17.10;1.00;;;;;;5035173;28;20033;-83
2023/07/20 06:29:10;;;;;;;;;;;17.20;87.40;;;;;;5025158;28;19940;-79
2023/07/20 06:31:36;;;;;;;;;;;17.30;26.80;;;;;;5036600;28;19933;-76
2023/07/20 06:34:02;;;;;;;;;;;17.40;20.50;;;;;;5038512;28;19924;-78
2023/07/20 06:36:28;;;;;;;;;;;17.50;1.00;;;;;;5036861;28;19933;-78
2023/07/20 06:38:54;;;;;;;;;;;17.60;1.00;;;;;;5031564;28;19928;-78
2023/07/20 06:41:19;;;;;;;;;;;17.70;99.90;;;;;;5039407;28;20291;-77
2023/07/20 06:43:45;;;;;;;;;;;17.70;99.90;;;;;;5035083;28;19933;-78
2023/07/20 06:46:11;;;;;;;;;;;17.70;99.90;;;;;;5035979;28;20025;-77
2023/07/20 06:48:36;;;;;;;;;;;17.70;99.90;;;;;;5034879;28;19982;-77
2023/07/20 06:51:02;;;;;;;;;;;17.70;28.30;;;;;;5034719;28;19928;-77
2023/07/20 06:53:28;;;;;;;;;;;17.70;1.00;;;;;;5018150;28;20020;-77
2023/07/20 06:55:54;;;;;;;;;;;17.90;99.90;;;;;;5035607;28;19929;-78
2023/07/20 06:58:21;;;;;;;;;;;18.00;99.90;;;;;;5020123;28;19932;-78
2023/07/20 07:00:47;;;;;;;;;;;18.10;1.00;;;;;;5017633;28;20446;-78
2023/07/20 07:03:12;;;;;;;;;;;18.60;1.00;;;;;;5036748;28;19929;-77
2023/07/20 07:05:38;;;;;;;;;;;18.30;99.90;;;;;;5037412;28;19972;-78
2023/07/20 07:08:04;;;;;;;;;;;18.40;96.50;;;;;;5036893;28;19951;-79
2023/07/20 07:10:30;;;;;;;;;;;18.60;55.10;;;;;;5034830;28;19925;-77
2023/07/20 07:12:56;;;;;;;;;;;18.70;25.70;;;;;;5033907;28;19936;-78
2023/07/20 07:15:21;;;;;;;;;;;18.80;99.90;;;;;;5020074;28;19929;-78
2023/07/20 07:17:47;;;;;;;;;;;18.70;99.90;;;;;;5016884;28;20390;-78
2023/07/20 07:20:13;;;;;;;;;;;18.70;99.90;;;;;;5036082;28;19936;-78
2023/07/20 07:22:39;;;;;;;;;;;18.90;99.90;;;;;;5034027;28;19925;-78
2023/07/20 07:25:05;;;;;;;;;;;18.90;99.90;;;;;;5036602;28;19951;-78
2023/07/20 07:27:30;;;;;;;;;;;19.00;99.90;;;;;;5037512;28;19940;-78
2023/07/20 07:29:56;;;;;;;;;;;19.10;99.90;;;;;;5037794;28;19928;-77
2023/07/20 07:32:22;;;;;;;;;;;19.20;99.90;;;;;;5036233;28;20051;-78
2023/07/20 07:34:48;;;;;;;;;;;19.30;99.90;;;;;;5037049;28;19983;-78
2023/07/20 07:37:14;;;;;;;;;;;19.40;99.90;;;;;;5034017;28;20349;-78
2023/07/20 07:39:39;;;;;;;;;;;19.60;99.90;;;;;;5039797;28;20020;-78
2023/07/20 07:42:05;;;;;;;;;;;19.80;2.50;;;;;;4999449;28;19976;-77
2023/07/20 07:44:31;;;;;;;;;;;19.60;1.00;;;;;;5032542;28;19979;-77
2023/07/20 07:46:57;;;;;;;;;;;19.60;1.00;;;;;;5032699;28;20019;-79
2023/07/20 07:49:23;;;;;;;;;;;19.80;1.00;;;;;;5018582;28;20050;-76
2023/07/20 07:51:48;;;;;;;;;;;20.00;1.00;;;;;;5016412;28;20009;-78
2023/07/20 07:54:14;;;;;;;;;;;19.30;1.00;;;;;;5034190;28;19929;-76
2023/07/20 07:56:40;;;;;;;;;;;20.40;1.00;;;;;;5034718;28;19924;-76
2023/07/20 07:59:06;;;;;;;;;;;20.70;1.00;;;;;;5033758;28;19939;-76
2023/07/20 08:01:32;;;;;;;;;;;20.80;99.90;;;;;;5033478;28;19929;-74
2023/07/20 08:03:58;;;;;;;;;;;20.70;99.90;;;;;;5039124;28;19933;-76
2023/07/20 08:06:26;;;;;;;;;;;20.70;99.90;;;;;;5034382;28;19929;-75
2023/07/20 08:08:52;;;;;;;;;;;20.90;99.90;;;;;;5033359;28;20376;-77
2023/07/20 08:11:18;;;;;;;;;;;21.00;99.90;;;;;;5015891;28;19943;-75
2023/07/20 08:13:43;;;;;;;;;;;21.20;99.90;;;;;;5017708;28;19964;-75
2023/07/20 08:16:09;;;;;;;;;;;21.30;99.90;;;;;;5018476;28;19932;-75
2023/07/20 08:18:35;;;;;;;;;;;21.40;99.90;;;;;;5033964;28;20410;-75
2023/07/20 08:21:00;;;;;;;;;;;21.60;99.90;;;;;;5032182;28;19932;-75
2023/07/20 08:23:27;;;;;;;;;;;21.70;99.90;;;;;;5033659;28;19935;-76
2023/07/20 08:25:53;;;;;;;;;;;21.80;99.90;;;;;;5016205;28;19928;-76
2023/07/20 08:28:18;;;;;;;;;;;22.10;99.90;;;;;;5033551;28;19975;-77
2023/07/20 08:30:45;;;;;;;;;;;22.00;99.90;;;;;;5016901;28;20332;-76
2023/07/20 08:33:12;;;;;;;;;;;22.00;99.90;;;;;;5032170;28;19933;-75
2023/07/20 08:35:38;;;;;;;;;;;22.20;99.90;;;;;;5032823;28;19929;-75
2023/07/20 08:38:04;;;;;;;;;;;22.20;99.90;;;;;;5032597;28;19925;-76
2023/07/20 08:40:33;;;;;;;;;;;22.20;99.90;;;;;;5017642;28;19948;-76
2023/07/20 08:43:02;;;;;;;;;;;22.40;96.90;;;;;;5032814;28;19970;-75
2023/07/20 08:45:31;;;;;;;;;;;22.80;93.00;;;;;;5033905;28;19925;-76
2023/07/20 08:48:00;;;;;;;;;;;23.10;72.20;;;;;;5029500;28;19932;-75
2023/07/20 08:50:28;;;;;;;;;;;23.30;88.60;;;;;;5032271;28;19933;-76
2023/07/20 08:52:56;;;;;;;;;;;23.50;90.30;;;;;;5035025;28;20372;-75
2023/07/20 08:55:23;;;;;;;;;;;23.60;13.90;;;;;;5034747;28;19925;-76
2023/07/20 08:57:50;;;;;;;;;;;23.80;6.50;;;;;;5017410;28;20564;-75
2023/07/20 09:00:17;;;;;;;;;;;24.30;1.00;;;;;;5031842;28;19987;-74
2023/07/20 09:02:45;;;;;;;;;;;24.00;1.00;;;;;;5014421;28;20043;-76
2023/07/20 09:05:10;;;;;;;;;;;24.00;1.00;;;;;;5017427;28;19939;-75
2023/07/20 09:07:36;;;;;;;;;;;24.00;1.00;;;;;;5033038;28;20147;-75
2023/07/20 09:10:06;;;;;;;;;;;24.10;1.00;;;;;;5033745;28;19932;-75
2023/07/20 09:12:41;;;;;;;;;;;24.40;1.00;;;;;;5015540;28;21204;-79
2023/07/20 09:15:08;;;;;;;;;;;24.50;1.00;;;;;;5036851;28;19956;-80
2023/07/20 09:17:34;;;;;;;;;;;24.50;1.00;;;;;;5019280;28;19932;-77
2023/07/20 09:20:10;;;;;;;;;;;24.90;1.00;;;;;;5033265;28;20303;-78
2023/07/20 09:22:38;;;;;;;;;;;25.20;1.00;;;;;;5033121;28;19929;-76
2023/07/20 09:25:05;;;;;;;;;;;25.50;1.00;;;;;;5049504;28;19929;-77
2023/07/20 09:27:47;;;;;;;;;;;25.00;1.00;;;;;;5048222;28;21096;-76
2023/07/20 09:30:14;;;;;;;;;;;24.40;1.00;;;;;;5032254;28;19933;-76
2023/07/20 09:32:44;;;;;;;;;;;24.00;1.00;;;;;;5034059;28;19929;-76
2023/07/20 09:35:29;;;;;;;;;;;23.80;1.00;;;;;;5031144;28;19935;-77
2023/07/20 09:37:58;;;;;;;;;;;23.60;1.00;;;;;;5032101;28;20133;-75
2023/07/20 09:40:24;;;;;;;;;;;23.60;1.00;;;;;;5035936;28;19928;-76
2023/07/20 09:42:51;;;;;;;;;;;23.40;1.00;;;;;;5035487;28;20010;-75
2023/07/20 09:45:17;;;;;;;;;;;23.60;1.00;;;;;;5037226;28;19990;-77
2023/07/20 09:47:43;;;;;;;;;;;23.50;1.00;;;;;;5031809;28;19937;-76
2023/07/20 09:50:11;;;;;;;;;;;23.00;1.00;;;;;;5019338;28;20376;-76
2023/07/20 09:52:38;;;;;;;;;;;23.00;1.00;;;;;;5034449;28;19951;-76
2023/07/20 09:55:05;;;;;;;;;;;22.80;1.00;;;;;;5025674;28;20415;-76
2023/07/20 09:57:32;;;;;;;;;;;22.50;1.00;;;;;;5035876;28;20374;-76
2023/07/20 09:59:59;;;;;;;;;;;22.60;1.00;;;;;;5036490;28;19956;-76
2023/07/20 10:02:29;;;;;;;;;;;23.20;1.00;;;;;;5038518;28;19933;-76
2023/07/20 10:04:55;;;;;;;;;;;23.40;1.00;;;;;;5021971;28;19929;-76
2023/07/20 10:07:23;;;;;;;;;;;23.40;1.00;;;;;;5017719;28;19929;-77
2023/07/20 10:09:51;;;;;;;;;;;23.50;1.00;;;;;;5050673;28;19928;-75
2023/07/20 10:12:17;;;;;;;;;;;23.60;1.00;;;;;;5039314;28;20378;-76
2023/07/20 10:14:49;;;;;;;;;;;23.90;1.00;;;;;;5039977;28;19948;-75
2023/07/20 10:17:17;;;;;;;;;;;24.20;1.00;;;;;;5036477;28;19925;-76
2023/07/20 10:19:46;;;;;;;;;;;24.70;1.00;;;;;;5040536;28;19929;-75
2023/07/20 10:22:16;;;;;;;;;;;25.00;1.00;;;;;;5038609;28;19929;-76
2023/07/20 10:24:45;;;;;;;;;;;25.00;1.00;;;;;;5039474;28;19932;-75
2023/07/20 10:27:10;;;;;;;;;;;25.00;1.00;;;;;;5035009;28;19928;-75
2023/07/20 10:29:36;;;;;;;;;;;25.10;1.00;;;;;;5036733;28;19955;-75
2023/07/20 10:32:02;;;;;;;;;;;25.20;1.00;;;;;;5023101;28;19939;-75
2023/07/20 10:34:28;;;;;;;;;;;25.30;1.00;;;;;;5022314;28;19929;-75
2023/07/20 10:36:54;;;;;;;;;;;25.40;1.00;;;;;;5038710;28;19939;-76
2023/07/20 10:39:24;;;;;;;;;;;25.70;1.00;;;;;;5022286;28;20431;-76
2023/07/20 10:41:50;;;;;;;;;;;25.90;1.00;;;;;;5021925;28;20244;-76
2023/07/20 10:44:19;;;;;;;;;;;26.20;1.00;;;;;;5021102;28;19929;-75
2023/07/20 10:46:46;;;;;;;;;;;26.30;1.00;;;;;;5037837;28;19939;-77
2023/07/20 10:49:12;;;;;;;;;;;26.40;1.00;;;;;;5022730;28;19929;-75
2023/07/20 10:51:42;;;;;;;;;;;26.20;99.90;;;;;;5035353;28;19939;-76
2023/07/20 10:54:17;;;;;;;;;;;26.10;99.90;;;;;;5038295;28;19947;-76
2023/07/20 10:56:49;;;;;;;;;;;26.00;99.90;;;;;;5024880;28;19929;-75
2023/07/20 10:59:18;;;;;;;;;;;26.20;99.90;;;;;;5031967;28;19940;-76
2023/07/20 11:01:45;;;;;;;;;;;26.10;99.90;;;;;;5035661;28;19935;-76
2023/07/20 11:04:10;;;;;;;;;;;26.10;99.90;;;;;;5033281;28;19975;-75
2023/07/20 11:06:38;;;;;;;;;;;26.10;99.90;;;;;;5037700;28;21278;-75
2023/07/20 11:09:16;;;;;;;;;;;26.20;99.90;;;;;;5035932;28;19948;-76
2023/07/20 11:11:43;;;;;;;;;;;26.40;99.90;;;;;;5036532;28;19936;-75
2023/07/20 11:14:10;;;;;;;;;;;26.20;99.90;;;;;;5038058;28;19929;-76
2023/07/20 11:16:39;;;;;;;;;;;25.80;99.90;;;;;;5040012;28;19943;-78
2023/07/20 11:19:05;;;;;;;;;;;25.60;99.90;;;;;;5038643;28;20221;-76
2023/07/20 11:21:38;;;;;;;;;;;25.50;99.90;;;;;;5034440;28;19940;-77
2023/07/20 11:24:04;;;;;;;;;;;25.70;99.90;;;;;;5036948;28;19928;-76
2023/07/20 11:26:30;;;;;;;;;;;25.60;99.90;;;;;;5037706;28;19933;-76
2023/07/20 11:28:55;;;;;;;;;;;25.60;99.90;;;;;;5035775;28;19928;-76
2023/07/20 11:31:21;;;;;;;;;;;25.80;99.90;;;;;;5036738;28;20602;-76
2023/07/20 11:33:47;;;;;;;;;;;25.90;99.90;;;;;;5034595;28;19935;-76
2023/07/20 11:36:13;;;;;;;;;;;25.90;99.90;;;;;;5037882;28;19943;-76
2023/07/20 11:38:43;;;;;;;;;;;26.10;99.90;;;;;;5037030;28;20004;-76
2023/07/20 11:41:08;;;;;;;;;;;26.50;99.90;;;;;;5036218;28;21001;-76
2023/07/20 11:43:37;;;;;;;;;;;26.80;99.90;;;;;;5003971;28;20074;-76
2023/07/20 11:46:06;;;;;;;;;;;26.90;99.90;;;;;;5036261;28;19955;-76
2023/07/20 11:48:33;;;;;;;;;;;27.00;99.90;;;;;;5037889;28;19932;-76
2023/07/20 11:50:59;;;;;;;;;;;27.10;99.90;;;;;;5017064;28;20380;-76
2023/07/20 11:53:25;;;;;;;;;;;27.30;99.90;;;;;;5040442;28;21380;-76
2023/07/20 11:55:51;;;;;;;;;;;27.20;99.90;;;;;;5021790;28;19944;-75
2023/07/20 11:58:17;;;;;;;;;;;27.30;99.90;;;;;;5038660;28;19929;-75
2023/07/20 12:00:43;;;;;;;;;;;27.30;99.90;;;;;;5026793;28;20015;-76
2023/07/20 12:03:10;;;;;;;;;;;27.30;99.90;;;;;;5018065;28;20376;-76
2023/07/20 12:05:38;;;;;;;;;;;27.50;99.90;;;;;;5036657;28;19924;-76
2023/07/20 12:08:03;;;;;;;;;;;27.60;99.90;;;;;;5053594;28;19948;-76
2023/07/20 12:10:29;;;;;;;;;;;27.50;99.90;;;;;;5024543;28;20427;-76
2023/07/20 12:13:01;;;;;;;;;;;27.70;99.90;;;;;;5035735;28;20406;-76
2023/07/20 12:15:29;;;;;;;;;;;27.30;99.90;;;;;;5035095;28;19928;-75
2023/07/20 12:17:56;;;;;;;;;;;27.30;99.90;;;;;;5020475;28;19970;-76
2023/07/20 12:20:25;;;;;;;;;;;26.90;99.90;;;;;;5036674;28;19936;-76
2023/07/20 12:22:51;;;;;;;;;;;27.30;99.90;;;;;;5037492;28;19929;-74
2023/07/20 12:25:19;;;;;;;;;;;27.40;99.90;;;;;;5034925;28;20836;-76
2023/07/20 12:27:46;;;;;;;;;;;27.40;99.90;;;;;;5035283;28;20003;-76
2023/07/20 12:30:13;;;;;;;;;;;27.40;99.90;;;;;;5042065;28;20526;-76
2023/07/20 12:32:39;;;;;;;;;;;27.50;99.90;;;;;;5034548;28;20192;-76
2023/07/20 12:35:06;;;;;;;;;;;27.70;99.90;;;;;;5035343;28;19928;-76
2023/07/20 12:37:31;;;;;;;;;;;28.00;99.90;;;;;;5034573;28;19925;-76
2023/07/20 12:39:58;;;;;;;;;;;28.10;99.90;;;;;;5034631;28;19935;-76
2023/07/20 12:42:24;;;;;;;;;;;28.10;99.90;;;;;;5035324;28;19928;-75
2023/07/20 12:44:50;;;;;;;;;;;28.20;99.90;;;;;;5032818;28;20291;-74
2023/07/20 12:47:17;;;;;;;;;;;28.20;99.90;;;;;;5033899;28;19933;-75
2023/07/20 12:49:45;;;;;;;;;;;28.30;99.90;;;;;;5035693;28;19933;-75
2023/07/20 12:52:11;;;;;;;;;;;28.10;99.90;;;;;;5036393;28;19925;-75
2023/07/20 12:54:36;;;;;;;;;;;28.10;99.90;;;;;;5036430;28;19928;-75
2023/07/20 12:57:03;;;;;;;;;;;28.20;99.90;;;;;;5039415;28;20474;-80
2023/07/20 12:59:29;;;;;;;;;;;28.10;99.90;;;;;;5035223;28;20016;-80
2023/07/20 13:01:54;;;;;;;;;;;28.20;99.90;;;;;;5039900;28;20035;-80
2023/07/20 13:04:20;;;;;;;;;;;27.70;99.90;;;;;;5038351;28;20368;-81
2023/07/20 13:06:46;;;;;;;;;;;27.40;99.90;;;;;;5036398;28;19939;-81
2023/07/20 13:09:11;;;;;;;;;;;27.50;99.90;;;;;;5003883;28;19925;-82
2023/07/20 13:11:37;;;;;;;;;;;27.60;99.90;;;;;;5035935;28;19935;-80
2023/07/20 13:14:02;;;;;;;;;;;27.30;99.90;;;;;;5038656;28;19929;-81
2023/07/20 13:16:28;;;;;;;;;;;27.10;99.90;;;;;;5041263;28;19928;-81
2023/07/20 13:18:54;;;;;;;;;;;27.20;99.90;;;;;;5041771;28;19925;-80
2023/07/20 13:21:22;;;;;;;;;;;27.60;99.90;;;;;;5045754;28;19940;-80
2023/07/20 13:23:48;;;;;;;;;;;27.50;99.90;;;;;;5045939;28;19997;-79
2023/07/20 13:26:14;;;;;;;;;;;27.20;99.90;;;;;;5046883;28;19935;-81
2023/07/20 13:28:40;;;;;;;;;;;27.00;99.90;;;;;;5046030;28;20011;-81
2023/07/20 13:31:06;;;;;;;;;;;27.10;99.90;;;;;;5046586;28;20382;-80
2023/07/20 13:33:31;;;;;;;;;;;27.10;99.90;;;;;;5027081;28;19975;-80
2023/07/20 13:35:57;;;;;;;;;;;27.40;99.90;;;;;;5041767;28;19974;-78
2023/07/20 13:38:22;;;;;;;;;;;27.60;99.90;;;;;;5043463;28;20074;-80
2023/07/20 13:40:48;;;;;;;;;;;27.00;99.90;;;;;;5022840;28;19929;-78
2023/07/20 13:43:14;;;;;;;;;;;26.90;99.90;;;;;;5011744;28;19929;-80
2023/07/20 13:45:39;;;;;;;;;;;26.90;99.90;;;;;;5025687;28;19940;-79
2023/07/20 13:48:05;;;;;;;;;;;27.10;99.90;;;;;;5041513;28;20455;-79
2023/07/20 13:50:31;;;;;;;;;;;27.00;99.90;;;;;;5040340;28;19925;-83
2023/07/20 13:52:56;;;;;;;;;;;26.90;99.90;;;;;;5022395;28;19967;-78
2023/07/20 13:55:22;;;;;;;;;;;27.10;99.90;;;;;;5040525;28;20299;-77
2023/07/20 13:57:48;;;;;;;;;;;27.40;99.90;;;;;;5023340;28;19929;-77
2023/07/20 14:00:13;;;;;;;;;;;27.50;99.90;;;;;;5022962;28;19999;-79
2023/07/20 14:02:39;;;;;;;;;;;27.70;99.90;;;;;;5022669;28;20417;-77
2023/07/20 14:05:05;;;;;;;;;;;27.80;99.90;;;;;;5037583;28;20050;-79
2023/07/20 14:07:31;;;;;;;;;;;28.10;99.90;;;;;;5040160;28;19935;-78
2023/07/20 14:09:57;;;;;;;;;;;28.20;99.90;;;;;;5038384;28;20422;-76
2023/07/20 14:12:22;;;;;;;;;;;28.00;99.90;;;;;;5038452;28;19936;-78
2023/07/20 14:14:48;;;;;;;;;;;27.90;99.90;;;;;;5053797;28;19929;-76
2023/07/20 14:17:15;;;;;;;;;;;27.60;99.90;;;;;;5039077;28;19979;-78
2023/07/20 14:19:40;;;;;;;;;;;27.30;99.90;;;;;;5038906;28;19936;-78